sensor_id;sensor_type;location;lat;lon;timestamp;temperature;humidity
60965;DHT22;46834;51.100;6.886;2023-03-12T00:00:50;3.40;40.80
60965;DHT22;46834;51.100;6.886;2023-03-12T00:03:16;3.40;40.80
60965;DHT22;46834;51.100;6.886;2023-03-12T00:05:43;3.40;40.80
60965;DHT22;46834;51.100;6.886;2023-03-12T00:08:10;3.40;40.70
60965;DHT22;46834;51.100;6.886;2023-03-12T00:10:38;3.40;40.70
60965;DHT22;46834;51.100;6.886;2023-03-12T00:13:05;3.40;40.80
60965;DHT22;46834;51.100;6.886;2023-03-12T00:15:35;3.40;40.70
60965;DHT22;46834;51.100;6.886;2023-03-12T00:18:04;3.30;40.60
60965;DHT22;46834;51.100;6.886;2023-03-12T00:20:30;3.30;40.60
60965;DHT22;46834;51.100;6.886;2023-03-12T00:22:56;3.30;40.70
60965;DHT22;46834;51.100;6.886;2023-03-12T00:25:21;3.30;40.60
60965;DHT22;46834;51.100;6.886;2023-03-12T00:27:47;3.40;40.70
60965;DHT22;46834;51.100;6.886;2023-03-12T00:30:13;3.30;40.70
60965;DHT22;46834;51.100;6.886;2023-03-12T00:32:39;3.30;40.70
60965;DHT22;46834;51.100;6.886;2023-03-12T00:35:06;3.30;40.60
60965;DHT22;46834;51.100;6.886;2023-03-12T00:37:32;3.40;40.70
60965;DHT22;46834;51.100;6.886;2023-03-12T00:39:58;3.30;40.70
60965;DHT22;46834;51.100;6.886;2023-03-12T00:42:26;3.40;40.80
60965;DHT22;46834;51.100;6.886;2023-03-12T00:44:52;3.40;40.80
60965;DHT22;46834;51.100;6.886;2023-03-12T00:47:18;3.40;40.80
60965;DHT22;46834;51.100;6.886;2023-03-12T00:49:44;3.40;40.80
60965;DHT22;46834;51.100;6.886;2023-03-12T00:52:10;3.40;40.80
60965;DHT22;46834;51.100;6.886;2023-03-12T00:54:36;3.40;40.70
60965;DHT22;46834;51.100;6.886;2023-03-12T00:57:01;3.40;40.80
60965;DHT22;46834;51.100;6.886;2023-03-12T00:59:27;3.40;40.80
60965;DHT22;46834;51.100;6.886;2023-03-12T01:01:53;3.40;40.80
60965;DHT22;46834;51.100;6.886;2023-03-12T01:04:18;3.40;40.70
60965;DHT22;46834;51.100;6.886;2023-03-12T01:06:44;3.50;40.80
60965;DHT22;46834;51.100;6.886;2023-03-12T01:09:10;3.40;40.70
60965;DHT22;46834;51.100;6.886;2023-03-12T01:11:37;3.40;40.70
60965;DHT22;46834;51.100;6.886;2023-03-12T01:14:04;3.50;40.80
60965;DHT22;46834;51.100;6.886;2023-03-12T01:16:31;3.50;40.70
60965;DHT22;46834;51.100;6.886;2023-03-12T01:18:58;3.50;40.70
60965;DHT22;46834;51.100;6.886;2023-03-12T01:21:27;3.50;40.70
60965;DHT22;46834;51.100;6.886;2023-03-12T01:23:54;3.50;40.70
60965;DHT22;46834;51.100;6.886;2023-03-12T01:26:20;3.50;40.70
60965;DHT22;46834;51.100;6.886;2023-03-12T01:28:47;3.50;40.60
60965;DHT22;46834;51.100;6.886;2023-03-12T01:31:15;3.50;40.60
60965;DHT22;46834;51.100;6.886;2023-03-12T01:33:43;3.50;40.60
60965;DHT22;46834;51.100;6.886;2023-03-12T01:36:24;3.50;40.60
60965;DHT22;46834;51.100;6.886;2023-03-12T01:38:52;3.50;40.50
60965;DHT22;46834;51.100;6.886;2023-03-12T01:41:21;3.50;40.60
60965;DHT22;46834;51.100;6.886;2023-03-12T01:43:48;3.50;40.60
60965;DHT22;46834;51.100;6.886;2023-03-12T01:51:41;3.50;40.50
60965;DHT22;46834;51.100;6.886;2023-03-12T01:54:18;3.50;40.50
60965;DHT22;46834;51.100;6.886;2023-03-12T01:56:47;3.50;40.50
60965;DHT22;46834;51.100;6.886;2023-03-12T01:59:20;3.50;40.40
60965;DHT22;46834;51.100;6.886;2023-03-12T02:01:50;3.50;40.40
60965;DHT22;46834;51.100;6.886;2023-03-12T02:04:18;3.50;40.40
60965;DHT22;46834;51.100;6.886;2023-03-12T02:06:57;3.50;40.40
60965;DHT22;46834;51.100;6.886;2023-03-12T02:09:29;3.40;40.30
60965;DHT22;46834;51.100;6.886;2023-03-12T02:11:57;3.40;40.40
60965;DHT22;46834;51.100;6.886;2023-03-12T02:14:22;3.40;40.50
60965;DHT22;46834;51.100;6.886;2023-03-12T02:16:49;3.40;40.50
60965;DHT22;46834;51.100;6.886;2023-03-12T02:22:09;3.40;40.50
60965;DHT22;46834;51.100;6.886;2023-03-12T02:24:51;3.40;40.50
60965;DHT22;46834;51.100;6.886;2023-03-12T02:27:22;3.40;40.50
60965;DHT22;46834;51.100;6.886;2023-03-12T02:29:49;3.40;40.50
60965;DHT22;46834;51.100;6.886;2023-03-12T02:32:27;3.40;40.50
60965;DHT22;46834;51.100;6.886;2023-03-12T02:34:58;3.40;40.50
60965;DHT22;46834;51.100;6.886;2023-03-12T02:37:24;3.40;40.60
60965;DHT22;46834;51.100;6.886;2023-03-12T02:40:39;3.40;40.60
60965;DHT22;46834;51.100;6.886;2023-03-12T02:43:09;3.40;40.60
60965;DHT22;46834;51.100;6.886;2023-03-12T02:45:37;3.50;40.70
60965;DHT22;46834;51.100;6.886;2023-03-12T02:50:38;3.50;40.70
60965;DHT22;46834;51.100;6.886;2023-03-12T02:53:04;3.50;40.70
60965;DHT22;46834;51.100;6.886;2023-03-12T02:55:30;3.50;40.70
60965;DHT22;46834;51.100;6.886;2023-03-12T02:57:55;3.50;40.70
60965;DHT22;46834;51.100;6.886;2023-03-12T03:00:21;3.50;40.70
60965;DHT22;46834;51.100;6.886;2023-03-12T03:02:47;3.50;40.70
60965;DHT22;46834;51.100;6.886;2023-03-12T03:05:13;3.50;40.70
60965;DHT22;46834;51.100;6.886;2023-03-12T03:07:39;3.50;40.70
60965;DHT22;46834;51.100;6.886;2023-03-12T03:10:05;3.50;40.70
60965;DHT22;46834;51.100;6.886;2023-03-12T03:12:33;3.50;40.70
60965;DHT22;46834;51.100;6.886;2023-03-12T03:15:00;3.60;40.80
60965;DHT22;46834;51.100;6.886;2023-03-12T03:17:27;3.60;40.80
60965;DHT22;46834;51.100;6.886;2023-03-12T03:19:53;3.60;40.70
60965;DHT22;46834;51.100;6.886;2023-03-12T03:22:21;3.60;40.70
60965;DHT22;46834;51.100;6.886;2023-03-12T03:24:46;3.50;40.60
60965;DHT22;46834;51.100;6.886;2023-03-12T03:27:13;3.50;40.50
60965;DHT22;46834;51.100;6.886;2023-03-12T03:29:39;3.50;40.60
60965;DHT22;46834;51.100;6.886;2023-03-12T03:32:06;3.50;40.60
60965;DHT22;46834;51.100;6.886;2023-03-12T03:34:32;3.50;40.60
60965;DHT22;46834;51.100;6.886;2023-03-12T03:36:58;3.50;40.60
60965;DHT22;46834;51.100;6.886;2023-03-12T03:39:24;3.50;40.70
60965;DHT22;46834;51.100;6.886;2023-03-12T03:41:50;3.50;40.70
60965;DHT22;46834;51.100;6.886;2023-03-12T03:44:16;3.50;40.60
60965;DHT22;46834;51.100;6.886;2023-03-12T03:46:43;3.50;40.60
60965;DHT22;46834;51.100;6.886;2023-03-12T03:49:08;3.50;40.60
60965;DHT22;46834;51.100;6.886;2023-03-12T03:51:34;3.50;40.60
60965;DHT22;46834;51.100;6.886;2023-03-12T03:54:00;3.60;40.70
60965;DHT22;46834;51.100;6.886;2023-03-12T03:56:26;3.60;40.70
60965;DHT22;46834;51.100;6.886;2023-03-12T03:58:52;3.60;40.70
60965;DHT22;46834;51.100;6.886;2023-03-12T04:01:18;3.60;40.70
60965;DHT22;46834;51.100;6.886;2023-03-12T04:03:44;3.60;40.70
60965;DHT22;46834;51.100;6.886;2023-03-12T04:06:11;3.60;40.70
60965;DHT22;46834;51.100;6.886;2023-03-12T04:08:37;3.60;40.60
60965;DHT22;46834;51.100;6.886;2023-03-12T04:11:17;3.60;40.60
60965;DHT22;46834;51.100;6.886;2023-03-12T04:13:44;3.60;40.50
60965;DHT22;46834;51.100;6.886;2023-03-12T04:16:11;3.60;40.60
60965;DHT22;46834;51.100;6.886;2023-03-12T04:18:38;3.70;40.60
60965;DHT22;46834;51.100;6.886;2023-03-12T04:21:06;3.60;40.50
60965;DHT22;46834;51.100;6.886;2023-03-12T04:23:34;3.70;40.60
60965;DHT22;46834;51.100;6.886;2023-03-12T04:26:01;3.70;40.70
60965;DHT22;46834;51.100;6.886;2023-03-12T04:28:27;3.70;40.60
60965;DHT22;46834;51.100;6.886;2023-03-12T04:30:57;3.70;40.70
60965;DHT22;46834;51.100;6.886;2023-03-12T04:33:31;3.70;40.60
60965;DHT22;46834;51.100;6.886;2023-03-12T04:35:58;3.70;40.60
60965;DHT22;46834;51.100;6.886;2023-03-12T04:38:26;3.70;40.60
60965;DHT22;46834;51.100;6.886;2023-03-12T04:41:00;3.70;40.60
60965;DHT22;46834;51.100;6.886;2023-03-12T04:43:28;3.70;40.60
60965;DHT22;46834;51.100;6.886;2023-03-12T04:45:54;3.70;40.60
60965;DHT22;46834;51.100;6.886;2023-03-12T04:48:21;3.70;40.60
60965;DHT22;46834;51.100;6.886;2023-03-12T04:50:47;3.70;40.60
60965;DHT22;46834;51.100;6.886;2023-03-12T04:53:13;3.70;40.60
60965;DHT22;46834;51.100;6.886;2023-03-12T04:55:39;3.70;40.60
60965;DHT22;46834;51.100;6.886;2023-03-12T04:58:05;3.80;40.70
60965;DHT22;46834;51.100;6.886;2023-03-12T05:00:30;3.80;40.70
60965;DHT22;46834;51.100;6.886;2023-03-12T05:02:56;3.80;40.70
60965;DHT22;46834;51.100;6.886;2023-03-12T05:05:22;3.80;40.80
60965;DHT22;46834;51.100;6.886;2023-03-12T05:07:48;3.80;40.80
60965;DHT22;46834;51.100;6.886;2023-03-12T05:10:13;3.80;40.80
60965;DHT22;46834;51.100;6.886;2023-03-12T05:12:39;3.80;40.80
60965;DHT22;46834;51.100;6.886;2023-03-12T05:15:05;3.80;40.80
60965;DHT22;46834;51.100;6.886;2023-03-12T05:17:32;3.80;40.70
60965;DHT22;46834;51.100;6.886;2023-03-12T05:19:57;3.80;40.80
60965;DHT22;46834;51.100;6.886;2023-03-12T05:22:23;3.80;40.70
60965;DHT22;46834;51.100;6.886;2023-03-12T05:24:49;3.80;40.80
60965;DHT22;46834;51.100;6.886;2023-03-12T05:27:14;3.80;40.80
60965;DHT22;46834;51.100;6.886;2023-03-12T05:29:40;3.90;40.90
60965;DHT22;46834;51.100;6.886;2023-03-12T05:32:06;3.80;40.90
60965;DHT22;46834;51.100;6.886;2023-03-12T05:34:32;3.80;41.00
60965;DHT22;46834;51.100;6.886;2023-03-12T05:36:58;3.80;41.60
60965;DHT22;46834;51.100;6.886;2023-03-12T05:39:24;3.80;41.10
60965;DHT22;46834;51.100;6.886;2023-03-12T05:41:51;3.70;41.10
60965;DHT22;46834;51.100;6.886;2023-03-12T05:44:21;3.70;41.20
60965;DHT22;46834;51.100;6.886;2023-03-12T05:46:49;3.70;41.30
60965;DHT22;46834;51.100;6.886;2023-03-12T05:49:15;3.70;41.50
60965;DHT22;46834;51.100;6.886;2023-03-12T05:51:41;3.70;41.50
60965;DHT22;46834;51.100;6.886;2023-03-12T05:54:08;3.70;41.60
60965;DHT22;46834;51.100;6.886;2023-03-12T05:56:37;3.70;41.80
60965;DHT22;46834;51.100;6.886;2023-03-12T05:59:04;3.70;41.90
60965;DHT22;46834;51.100;6.886;2023-03-12T06:01:30;3.60;42.00
60965;DHT22;46834;51.100;6.886;2023-03-12T06:03:56;3.60;41.90
60965;DHT22;46834;51.100;6.886;2023-03-12T06:06:22;3.60;42.00
60965;DHT22;46834;51.100;6.886;2023-03-12T06:08:49;3.60;42.10
60965;DHT22;46834;51.100;6.886;2023-03-12T06:11:16;3.60;42.30
60965;DHT22;46834;51.100;6.886;2023-03-12T06:13:42;3.60;42.30
60965;DHT22;46834;51.100;6.886;2023-03-12T06:16:11;3.50;42.20
60965;DHT22;46834;51.100;6.886;2023-03-12T06:18:45;3.50;42.40
60965;DHT22;46834;51.100;6.886;2023-03-12T06:21:18;3.50;42.40
60965;DHT22;46834;51.100;6.886;2023-03-12T06:23:47;3.50;42.60
60965;DHT22;46834;51.100;6.886;2023-03-12T06:26:14;3.40;42.50
60965;DHT22;46834;51.100;6.886;2023-03-12T06:28:41;3.40;42.80
60965;DHT22;46834;51.100;6.886;2023-03-12T06:31:07;3.30;42.90
60965;DHT22;46834;51.100;6.886;2023-03-12T06:33:34;3.30;42.90
60965;DHT22;46834;51.100;6.886;2023-03-12T06:36:01;3.30;43.00
60965;DHT22;46834;51.100;6.886;2023-03-12T06:38:29;3.30;43.10
60965;DHT22;46834;51.100;6.886;2023-03-12T06:41:02;3.30;43.30
60965;DHT22;46834;51.100;6.886;2023-03-12T06:43:33;3.30;43.30
60965;DHT22;46834;51.100;6.886;2023-03-12T06:46:01;3.30;43.40
60965;DHT22;46834;51.100;6.886;2023-03-12T06:48:29;3.30;43.40
60965;DHT22;46834;51.100;6.886;2023-03-12T06:50:58;3.30;43.50
60965;DHT22;46834;51.100;6.886;2023-03-12T06:53:24;3.30;43.50
60965;DHT22;46834;51.100;6.886;2023-03-12T06:55:51;3.30;43.60
60965;DHT22;46834;51.100;6.886;2023-03-12T06:58:17;3.30;43.60
60965;DHT22;46834;51.100;6.886;2023-03-12T07:00:43;3.40;43.70
60965;DHT22;46834;51.100;6.886;2023-03-12T07:03:09;3.40;43.70
60965;DHT22;46834;51.100;6.886;2023-03-12T07:05:34;3.40;43.80
60965;DHT22;46834;51.100;6.886;2023-03-12T07:08:00;3.40;43.90
60965;DHT22;46834;51.100;6.886;2023-03-12T07:10:26;3.40;43.90
60965;DHT22;46834;51.100;6.886;2023-03-12T07:12:54;3.50;44.10
60965;DHT22;46834;51.100;6.886;2023-03-12T07:15:21;3.50;44.00
60965;DHT22;46834;51.100;6.886;2023-03-12T07:17:47;3.50;44.00
60965;DHT22;46834;51.100;6.886;2023-03-12T07:20:13;3.50;44.10
60965;DHT22;46834;51.100;6.886;2023-03-12T07:22:39;3.50;44.00
60965;DHT22;46834;51.100;6.886;2023-03-12T07:25:05;3.50;44.00
60965;DHT22;46834;51.100;6.886;2023-03-12T07:27:31;3.50;44.10
60965;DHT22;46834;51.100;6.886;2023-03-12T07:29:57;3.60;44.20
60965;DHT22;46834;51.100;6.886;2023-03-12T07:32:22;3.60;44.20
60965;DHT22;46834;51.100;6.886;2023-03-12T07:34:48;3.60;44.10
60965;DHT22;46834;51.100;6.886;2023-03-12T07:37:14;3.60;44.20
60965;DHT22;46834;51.100;6.886;2023-03-12T07:39:39;3.60;44.20
60965;DHT22;46834;51.100;6.886;2023-03-12T07:42:05;3.70;44.30
60965;DHT22;46834;51.100;6.886;2023-03-12T07:44:31;3.70;44.30
60965;DHT22;46834;51.100;6.886;2023-03-12T07:46:59;3.70;44.30
60965;DHT22;46834;51.100;6.886;2023-03-12T07:49:24;3.70;44.30
60965;DHT22;46834;51.100;6.886;2023-03-12T07:51:51;3.70;44.30
60965;DHT22;46834;51.100;6.886;2023-03-12T07:54:17;3.70;44.30
60965;DHT22;46834;51.100;6.886;2023-03-12T07:56:43;3.80;44.30
60965;DHT22;46834;51.100;6.886;2023-03-12T07:59:09;3.80;44.40
60965;DHT22;46834;51.100;6.886;2023-03-12T08:01:34;3.80;44.40
60965;DHT22;46834;51.100;6.886;2023-03-12T08:04:01;3.80;44.40
60965;DHT22;46834;51.100;6.886;2023-03-12T08:06:27;3.90;44.50
60965;DHT22;46834;51.100;6.886;2023-03-12T08:08:53;3.90;44.40
60965;DHT22;46834;51.100;6.886;2023-03-12T08:11:20;4.00;44.50
60965;DHT22;46834;51.100;6.886;2023-03-12T08:13:46;3.90;44.50
60965;DHT22;46834;51.100;6.886;2023-03-12T08:16:11;3.90;44.60
60965;DHT22;46834;51.100;6.886;2023-03-12T08:18:39;3.90;44.50
60965;DHT22;46834;51.100;6.886;2023-03-12T08:21:07;4.00;44.60
60965;DHT22;46834;51.100;6.886;2023-03-12T08:23:32;4.00;44.60
60965;DHT22;46834;51.100;6.886;2023-03-12T08:25:58;4.00;44.60
60965;DHT22;46834;51.100;6.886;2023-03-12T08:28:24;4.00;44.60
60965;DHT22;46834;51.100;6.886;2023-03-12T08:30:52;4.00;44.60
60965;DHT22;46834;51.100;6.886;2023-03-12T08:33:20;4.10;44.90
60965;DHT22;46834;51.100;6.886;2023-03-12T08:35:47;4.10;44.90
60965;DHT22;46834;51.100;6.886;2023-03-12T08:38:13;4.10;44.90
60965;DHT22;46834;51.100;6.886;2023-03-12T08:40:40;4.10;44.90
60965;DHT22;46834;51.100;6.886;2023-03-12T08:43:05;4.10;45.00
60965;DHT22;46834;51.100;6.886;2023-03-12T08:45:32;4.10;45.10
60965;DHT22;46834;51.100;6.886;2023-03-12T08:48:01;4.10;45.20
60965;DHT22;46834;51.100;6.886;2023-03-12T08:50:27;4.10;45.20
60965;DHT22;46834;51.100;6.886;2023-03-12T08:52:55;4.10;45.30
60965;DHT22;46834;51.100;6.886;2023-03-12T08:55:21;4.10;45.30
60965;DHT22;46834;51.100;6.886;2023-03-12T08:57:47;4.10;45.40
60965;DHT22;46834;51.100;6.886;2023-03-12T09:00:13;4.10;45.60
60965;DHT22;46834;51.100;6.886;2023-03-12T09:02:43;4.20;45.70
60965;DHT22;46834;51.100;6.886;2023-03-12T09:05:10;4.20;46.10
60965;DHT22;46834;51.100;6.886;2023-03-12T09:07:36;4.20;45.80
60965;DHT22;46834;51.100;6.886;2023-03-12T09:10:03;4.20;45.90
60965;DHT22;46834;51.100;6.886;2023-03-12T09:12:30;4.20;46.00
60965;DHT22;46834;51.100;6.886;2023-03-12T09:14:55;4.20;46.10
60965;DHT22;46834;51.100;6.886;2023-03-12T09:17:21;4.20;46.30
60965;DHT22;46834;51.100;6.886;2023-03-12T09:19:47;4.20;46.40
60965;DHT22;46834;51.100;6.886;2023-03-12T09:22:13;4.20;46.40
60965;DHT22;46834;51.100;6.886;2023-03-12T09:24:38;4.20;46.50
60965;DHT22;46834;51.100;6.886;2023-03-12T09:27:04;4.10;46.60
60965;DHT22;46834;51.100;6.886;2023-03-12T09:29:30;4.20;46.90
60965;DHT22;46834;51.100;6.886;2023-03-12T09:31:57;4.20;46.90
60965;DHT22;46834;51.100;6.886;2023-03-12T09:34:23;4.20;47.00
60965;DHT22;46834;51.100;6.886;2023-03-12T09:36:48;4.10;46.90
60965;DHT22;46834;51.100;6.886;2023-03-12T09:39:15;4.20;47.10
60965;DHT22;46834;51.100;6.886;2023-03-12T09:41:43;4.20;47.20
60965;DHT22;46834;51.100;6.886;2023-03-12T09:44:25;4.20;47.40
60965;DHT22;46834;51.100;6.886;2023-03-12T09:47:23;4.30;47.80
60965;DHT22;46834;51.100;6.886;2023-03-12T09:49:53;4.30;47.60
60965;DHT22;46834;51.100;6.886;2023-03-12T09:52:35;4.30;47.30
60965;DHT22;46834;51.100;6.886;2023-03-12T09:55:23;4.40;47.90
60965;DHT22;46834;51.100;6.886;2023-03-12T09:57:52;4.40;47.50
60965;DHT22;46834;51.100;6.886;2023-03-12T10:00:23;4.40;47.60
60965;DHT22;46834;51.100;6.886;2023-03-12T10:05:46;4.50;48.30
60965;DHT22;46834;51.100;6.886;2023-03-12T10:11:47;4.50;48.10
60965;DHT22;46834;51.100;6.886;2023-03-12T10:17:30;4.60;48.50
60965;DHT22;46834;51.100;6.886;2023-03-12T10:23:11;4.70;48.00
60965;DHT22;46834;51.100;6.886;2023-03-12T10:28:44;4.80;48.80
60965;DHT22;46834;51.100;6.886;2023-03-12T10:31:26;4.90;48.60
60965;DHT22;46834;51.100;6.886;2023-03-12T10:33:58;4.90;48.90
60965;DHT22;46834;51.100;6.886;2023-03-12T10:36:38;4.90;48.30
60965;DHT22;46834;51.100;6.886;2023-03-12T10:39:14;5.00;48.70
60965;DHT22;46834;51.100;6.886;2023-03-12T10:41:45;5.00;49.00
60965;DHT22;46834;51.100;6.886;2023-03-12T10:44:21;5.00;48.80
60965;DHT22;46834;51.100;6.886;2023-03-12T10:47:17;5.00;49.20
60965;DHT22;46834;51.100;6.886;2023-03-12T10:49:52;5.10;49.60
60965;DHT22;46834;51.100;6.886;2023-03-12T10:52:22;5.10;48.80
60965;DHT22;46834;51.100;6.886;2023-03-12T10:54:50;5.20;49.10
60965;DHT22;46834;51.100;6.886;2023-03-12T10:57:17;5.20;49.00
60965;DHT22;46834;51.100;6.886;2023-03-12T10:59:46;5.20;49.00
60965;DHT22;46834;51.100;6.886;2023-03-12T11:02:33;5.20;49.00
60965;DHT22;46834;51.100;6.886;2023-03-12T11:07:44;5.30;50.00
60965;DHT22;46834;51.100;6.886;2023-03-12T11:12:55;5.40;49.30
60965;DHT22;46834;51.100;6.886;2023-03-12T11:15:38;5.40;50.30
60965;DHT22;46834;51.100;6.886;2023-03-12T11:18:18;5.50;50.20
60965;DHT22;46834;51.100;6.886;2023-03-12T11:20:45;5.50;50.30
60965;DHT22;46834;51.100;6.886;2023-03-12T11:23:16;5.60;49.80
60965;DHT22;46834;51.100;6.886;2023-03-12T11:26:02;5.60;50.20
60965;DHT22;46834;51.100;6.886;2023-03-12T11:28:37;5.70;50.60
60965;DHT22;46834;51.100;6.886;2023-03-12T11:31:26;5.70;50.40
60965;DHT22;46834;51.100;6.886;2023-03-12T11:34:04;5.80;50.40
60965;DHT22;46834;51.100;6.886;2023-03-12T11:37:07;5.80;50.60
60965;DHT22;46834;51.100;6.886;2023-03-12T11:39:45;5.90;51.40
60965;DHT22;46834;51.100;6.886;2023-03-12T11:42:47;5.90;50.40
60965;DHT22;46834;51.100;6.886;2023-03-12T11:52:01;6.20;50.90
60965;DHT22;46834;51.100;6.886;2023-03-12T12:00:52;6.50;50.50
60965;DHT22;46834;51.100;6.886;2023-03-12T12:09:13;6.70;51.30
60965;DHT22;46834;51.100;6.886;2023-03-12T12:20:42;7.10;52.80
60965;DHT22;46834;51.100;6.886;2023-03-12T12:26:11;7.40;52.00
60965;DHT22;46834;51.100;6.886;2023-03-12T12:32:03;7.70;54.00
60965;DHT22;46834;51.100;6.886;2023-03-12T12:37:52;8.10;53.20
60965;DHT22;46834;51.100;6.886;2023-03-12T12:40:32;8.30;54.20
60965;DHT22;46834;51.100;6.886;2023-03-12T12:46:07;8.70;54.20
60965;DHT22;46834;51.100;6.886;2023-03-12T12:48:40;8.80;53.20
60965;DHT22;46834;51.100;6.886;2023-03-12T12:51:11;8.90;53.00
60965;DHT22;46834;51.100;6.886;2023-03-12T12:54:01;9.10;53.00
60965;DHT22;46834;51.100;6.886;2023-03-12T13:02:13;9.30;53.50
60965;DHT22;46834;51.100;6.886;2023-03-12T13:04:42;9.30;53.00
60965;DHT22;46834;51.100;6.886;2023-03-12T13:09:50;9.50;53.30
60965;DHT22;46834;51.100;6.886;2023-03-12T13:12:19;9.60;53.20
60965;DHT22;46834;51.100;6.886;2023-03-12T13:14:47;9.60;52.80
60965;DHT22;46834;51.100;6.886;2023-03-12T13:20:05;9.80;53.00
60965;DHT22;46834;51.100;6.886;2023-03-12T13:33:51;9.80;52.90
60965;DHT22;46834;51.100;6.886;2023-03-12T13:36:36;9.80;52.50
60965;DHT22;46834;51.100;6.886;2023-03-12T13:41:36;9.80;53.00
60965;DHT22;46834;51.100;6.886;2023-03-12T13:44:29;9.80;53.10
60965;DHT22;46834;51.100;6.886;2023-03-12T13:49:51;10.00;53.00
60965;DHT22;46834;51.100;6.886;2023-03-12T13:52:32;10.00;54.20
60965;DHT22;46834;51.100;6.886;2023-03-12T13:58:07;10.20;53.20
60965;DHT22;46834;51.100;6.886;2023-03-12T14:00:55;10.20;53.00
60965;DHT22;46834;51.100;6.886;2023-03-12T14:03:40;10.20;52.90
60965;DHT22;46834;51.100;6.886;2023-03-12T14:06:12;10.30;53.10
60965;DHT22;46834;51.100;6.886;2023-03-12T14:09:13;10.30;52.60
60965;DHT22;46834;51.100;6.886;2023-03-12T14:12:07;10.40;52.90
60965;DHT22;46834;51.100;6.886;2023-03-12T14:17:42;10.50;52.30
60965;DHT22;46834;51.100;6.886;2023-03-12T14:20:17;10.50;52.30
60965;DHT22;46834;51.100;6.886;2023-03-12T14:22:53;10.50;52.30
60965;DHT22;46834;51.100;6.886;2023-03-12T14:28:09;10.60;52.00
60965;DHT22;46834;51.100;6.886;2023-03-12T14:31:02;10.60;51.90
60965;DHT22;46834;51.100;6.886;2023-03-12T14:33:37;10.60;52.10
60965;DHT22;46834;51.100;6.886;2023-03-12T14:36:17;10.60;51.80
60965;DHT22;46834;51.100;6.886;2023-03-12T14:38:47;10.60;51.70
60965;DHT22;46834;51.100;6.886;2023-03-12T14:43:51;10.60;51.60
60965;DHT22;46834;51.100;6.886;2023-03-12T14:46:23;10.60;51.60
60965;DHT22;46834;51.100;6.886;2023-03-12T14:48:55;10.60;51.60
60965;DHT22;46834;51.100;6.886;2023-03-12T14:51:27;10.60;51.60
60965;DHT22;46834;51.100;6.886;2023-03-12T14:53:54;10.70;51.70
60965;DHT22;46834;51.100;6.886;2023-03-12T14:56:38;10.50;51.50
60965;DHT22;46834;51.100;6.886;2023-03-12T14:59:29;10.60;51.70
60965;DHT22;46834;51.100;6.886;2023-03-12T15:02:14;10.60;51.70
60965;DHT22;46834;51.100;6.886;2023-03-12T15:05:37;10.60;51.50
60965;DHT22;46834;51.100;6.886;2023-03-12T15:07:48;10.60;51.40
60965;DHT22;46834;51.100;6.886;2023-03-12T15:10:30;10.70;51.30
60965;DHT22;46834;51.100;6.886;2023-03-12T15:13:26;10.70;51.20
60965;DHT22;46834;51.100;6.886;2023-03-12T15:16:02;10.70;51.00
60965;DHT22;46834;51.100;6.886;2023-03-12T15:18:58;10.70;51.00
60965;DHT22;46834;51.100;6.886;2023-03-12T15:21:33;10.70;51.00
60965;DHT22;46834;51.100;6.886;2023-03-12T15:24:11;10.80;51.10
60965;DHT22;46834;51.100;6.886;2023-03-12T15:26:46;10.80;51.10
60965;DHT22;46834;51.100;6.886;2023-03-12T15:29:27;10.80;51.00
60965;DHT22;46834;51.100;6.886;2023-03-12T15:31:58;10.80;51.00
60965;DHT22;46834;51.100;6.886;2023-03-12T15:34:36;10.90;51.00
60965;DHT22;46834;51.100;6.886;2023-03-12T15:37:32;10.90;51.00
60965;DHT22;46834;51.100;6.886;2023-03-12T15:40:26;11.00;51.20
60965;DHT22;46834;51.100;6.886;2023-03-12T15:42:57;10.90;50.80
60965;DHT22;46834;51.100;6.886;2023-03-12T15:45:38;11.10;50.90
60965;DHT22;46834;51.100;6.886;2023-03-12T15:48:36;11.00;50.50
60965;DHT22;46834;51.100;6.886;2023-03-12T15:51:24;11.10;50.50
60965;DHT22;46834;51.100;6.886;2023-03-12T15:56:42;11.10;50.10
60965;DHT22;46834;51.100;6.886;2023-03-12T15:59:22;11.10;50.20
60965;DHT22;46834;51.100;6.886;2023-03-12T16:02:02;11.00;49.80
60965;DHT22;46834;51.100;6.886;2023-03-12T16:05:12;11.10;50.00
60965;DHT22;46834;51.100;6.886;2023-03-12T16:07:46;11.00;49.50
60965;DHT22;46834;51.100;6.886;2023-03-12T16:10:27;11.00;49.70
60965;DHT22;46834;51.100;6.886;2023-03-12T16:13:02;10.90;49.50
60965;DHT22;46834;51.100;6.886;2023-03-12T16:15:32;11.00;49.60
60965;DHT22;46834;51.100;6.886;2023-03-12T16:18:25;10.90;49.50
60965;DHT22;46834;51.100;6.886;2023-03-12T16:21:00;10.90;49.20
60965;DHT22;46834;51.100;6.886;2023-03-12T16:23:50;11.00;49.50
60965;DHT22;46834;51.100;6.886;2023-03-12T16:29:43;10.90;49.30
60965;DHT22;46834;51.100;6.886;2023-03-12T16:32:18;10.90;49.10
60965;DHT22;46834;51.100;6.886;2023-03-12T16:34:52;10.90;49.10
60965;DHT22;46834;51.100;6.886;2023-03-12T16:37:39;10.80;49.00
60965;DHT22;46834;51.100;6.886;2023-03-12T16:40:09;10.90;49.10
60965;DHT22;46834;51.100;6.886;2023-03-12T16:42:48;10.80;49.10
60965;DHT22;46834;51.100;6.886;2023-03-12T16:45:19;10.80;49.00
60965;DHT22;46834;51.100;6.886;2023-03-12T16:47:47;10.70;49.00
60965;DHT22;46834;51.100;6.886;2023-03-12T16:50:21;10.70;49.00
60965;DHT22;46834;51.100;6.886;2023-03-12T16:52:48;10.90;49.20
60965;DHT22;46834;51.100;6.886;2023-03-12T16:55:21;10.80;49.10
60965;DHT22;46834;51.100;6.886;2023-03-12T16:57:52;10.70;49.00
60965;DHT22;46834;51.100;6.886;2023-03-12T17:00:32;10.80;49.00
60965;DHT22;46834;51.100;6.886;2023-03-12T17:02:58;10.70;48.90
60965;DHT22;46834;51.100;6.886;2023-03-12T17:05:26;10.70;49.00
60965;DHT22;46834;51.100;6.886;2023-03-12T17:07:53;10.70;49.00
60965;DHT22;46834;51.100;6.886;2023-03-12T17:10:20;10.70;49.00
60965;DHT22;46834;51.100;6.886;2023-03-12T17:12:47;10.60;48.90
60965;DHT22;46834;51.100;6.886;2023-03-12T17:15:17;10.70;49.00
60965;DHT22;46834;51.100;6.886;2023-03-12T17:17:46;10.70;49.10
60965;DHT22;46834;51.100;6.886;2023-03-12T17:20:17;10.70;49.10
60965;DHT22;46834;51.100;6.886;2023-03-12T17:22:43;10.60;49.00
60965;DHT22;46834;51.100;6.886;2023-03-12T17:25:25;10.60;49.00
60965;DHT22;46834;51.100;6.886;2023-03-12T17:27:53;10.60;48.90
60965;DHT22;46834;51.100;6.886;2023-03-12T17:30:21;10.50;48.90
60965;DHT22;46834;51.100;6.886;2023-03-12T17:32:47;10.50;48.90
60965;DHT22;46834;51.100;6.886;2023-03-12T17:35:13;10.50;49.60
60965;DHT22;46834;51.100;6.886;2023-03-12T17:37:39;10.40;48.90
60965;DHT22;46834;51.100;6.886;2023-03-12T17:40:05;10.40;48.90
60965;DHT22;46834;51.100;6.886;2023-03-12T17:42:33;10.40;49.00
60965;DHT22;46834;51.100;6.886;2023-03-12T17:45:00;10.40;49.00
60965;DHT22;46834;51.100;6.886;2023-03-12T17:47:27;10.40;49.00
60965;DHT22;46834;51.100;6.886;2023-03-12T17:49:53;10.40;49.00
60965;DHT22;46834;51.100;6.886;2023-03-12T17:52:18;10.50;49.10
60965;DHT22;46834;51.100;6.886;2023-03-12T17:54:44;10.40;49.00
60965;DHT22;46834;51.100;6.886;2023-03-12T17:57:10;10.40;49.10
60965;DHT22;46834;51.100;6.886;2023-03-12T17:59:36;10.40;49.10
60965;DHT22;46834;51.100;6.886;2023-03-12T18:02:01;10.40;49.10